sensor_id;sensor_type;location;lat;lon;timestamp;P1;durP1;ratioP1;P2;durP2;ratioP2
67757;SDS011;54562;47.620;18.786;2023-07-13T00:01:19;9.40;;;3.90;;
67757;SDS011;54562;47.620;18.786;2023-07-13T00:04:26;9.40;;;3.60;;
67757;SDS011;54562;47.620;18.786;2023-07-13T00:07:36;8.10;;;3.50;;
67757;SDS011;54562;47.620;18.786;2023-07-13T00:10:42;8.50;;;3.70;;
67757;SDS011;54562;47.620;18.786;2023-07-13T00:13:49;7.90;;;3.60;;
67757;SDS011;54562;47.620;18.786;2023-07-13T00:16:55;8.30;;;3.80;;
67757;SDS011;54562;47.620;18.786;2023-07-13T00:20:04;7.60;;;3.90;;
67757;SDS011;54562;47.620;18.786;2023-07-13T00:23:12;8.80;;;4.20;;
67757;SDS011;54562;47.620;18.786;2023-07-13T00:26:20;8.20;;;3.40;;
67757;SDS011;54562;47.620;18.786;2023-07-13T00:29:27;10.90;;;3.80;;
67757;SDS011;54562;47.620;18.786;2023-07-13T00:32:33;7.60;;;3.90;;
67757;SDS011;54562;47.620;18.786;2023-07-13T00:35:40;7.50;;;3.60;;
67757;SDS011;54562;47.620;18.786;2023-07-13T00:38:48;7.00;;;3.50;;
67757;SDS011;54562;47.620;18.786;2023-07-13T00:41:54;8.20;;;3.60;;
67757;SDS011;54562;47.620;18.786;2023-07-13T00:45:07;9.20;;;3.50;;
67757;SDS011;54562;47.620;18.786;2023-07-13T00:48:51;8.30;;;3.30;;
67757;SDS011;54562;47.620;18.786;2023-07-13T00:51:58;7.30;;;3.00;;
67757;SDS011;54562;47.620;18.786;2023-07-13T00:55:07;9.70;;;3.20;;
67757;SDS011;54562;47.620;18.786;2023-07-13T00:58:14;6.50;;;2.80;;
67757;SDS011;54562;47.620;18.786;2023-07-13T01:01:21;5.70;;;2.80;;
67757;SDS011;54562;47.620;18.786;2023-07-13T01:04:28;6.10;;;2.50;;
67757;SDS011;54562;47.620;18.786;2023-07-13T01:07:34;5.10;;;2.20;;
67757;SDS011;54562;47.620;18.786;2023-07-13T01:10:41;5.30;;;2.00;;
67757;SDS011;54562;47.620;18.786;2023-07-13T01:13:52;5.30;;;2.20;;
67757;SDS011;54562;47.620;18.786;2023-07-13T01:16:58;5.60;;;2.20;;
67757;SDS011;54562;47.620;18.786;2023-07-13T01:20:08;7.10;;;2.50;;
67757;SDS011;54562;47.620;18.786;2023-07-13T01:23:15;6.80;;;2.70;;
67757;SDS011;54562;47.620;18.786;2023-07-13T01:26:22;6.10;;;2.40;;
67757;SDS011;54562;47.620;18.786;2023-07-13T01:29:30;4.90;;;2.30;;
67757;SDS011;54562;47.620;18.786;2023-07-13T01:32:37;6.90;;;2.30;;
67757;SDS011;54562;47.620;18.786;2023-07-13T01:35:45;5.00;;;2.00;;
67757;SDS011;54562;47.620;18.786;2023-07-13T01:38:52;4.80;;;2.00;;
67757;SDS011;54562;47.620;18.786;2023-07-13T01:41:58;6.50;;;1.90;;
67757;SDS011;54562;47.620;18.786;2023-07-13T01:45:06;4.20;;;1.80;;
67757;SDS011;54562;47.620;18.786;2023-07-13T01:48:13;5.00;;;1.90;;
67757;SDS011;54562;47.620;18.786;2023-07-13T01:51:20;7.00;;;1.90;;
67757;SDS011;54562;47.620;18.786;2023-07-13T01:54:26;3.90;;;1.70;;
67757;SDS011;54562;47.620;18.786;2023-07-13T01:57:32;5.80;;;2.00;;
67757;SDS011;54562;47.620;18.786;2023-07-13T02:00:39;4.10;;;2.00;;
67757;SDS011;54562;47.620;18.786;2023-07-13T02:03:45;6.80;;;3.20;;
67757;SDS011;54562;47.620;18.786;2023-07-13T02:06:51;6.50;;;3.40;;
67757;SDS011;54562;47.620;18.786;2023-07-13T02:09:58;8.10;;;4.20;;
67757;SDS011;54562;47.620;18.786;2023-07-13T02:13:05;6.60;;;3.90;;
67757;SDS011;54562;47.620;18.786;2023-07-13T02:16:11;6.90;;;3.40;;
67757;SDS011;54562;47.620;18.786;2023-07-13T02:19:18;9.20;;;4.40;;
67757;SDS011;54562;47.620;18.786;2023-07-13T02:22:25;8.30;;;4.80;;
67757;SDS011;54562;47.620;18.786;2023-07-13T02:25:31;9.10;;;4.70;;
67757;SDS011;54562;47.620;18.786;2023-07-13T02:28:37;10.90;;;4.90;;
67757;SDS011;54562;47.620;18.786;2023-07-13T02:31:43;10.40;;;5.00;;
67757;SDS011;54562;47.620;18.786;2023-07-13T02:34:50;9.90;;;5.20;;
67757;SDS011;54562;47.620;18.786;2023-07-13T02:37:56;11.50;;;5.50;;
67757;SDS011;54562;47.620;18.786;2023-07-13T02:41:02;11.10;;;5.70;;
67757;SDS011;54562;47.620;18.786;2023-07-13T02:44:09;11.10;;;5.50;;
67757;SDS011;54562;47.620;18.786;2023-07-13T02:47:15;11.40;;;5.70;;
67757;SDS011;54562;47.620;18.786;2023-07-13T02:50:21;10.80;;;5.00;;
67757;SDS011;54562;47.620;18.786;2023-07-13T02:53:28;10.60;;;5.20;;
67757;SDS011;54562;47.620;18.786;2023-07-13T02:56:35;12.90;;;4.70;;
67757;SDS011;54562;47.620;18.786;2023-07-13T02:59:42;8.60;;;4.70;;
67757;SDS011;54562;47.620;18.786;2023-07-13T03:02:48;8.80;;;4.70;;
67757;SDS011;54562;47.620;18.786;2023-07-13T03:05:59;9.20;;;4.90;;
67757;SDS011;54562;47.620;18.786;2023-07-13T03:09:07;9.80;;;5.00;;
67757;SDS011;54562;47.620;18.786;2023-07-13T03:12:13;8.40;;;4.90;;
67757;SDS011;54562;47.620;18.786;2023-07-13T03:15:19;10.20;;;4.80;;
67757;SDS011;54562;47.620;18.786;2023-07-13T03:18:26;8.60;;;4.60;;
67757;SDS011;54562;47.620;18.786;2023-07-13T03:21:32;8.70;;;5.00;;
67757;SDS011;54562;47.620;18.786;2023-07-13T03:24:38;10.40;;;4.90;;
67757;SDS011;54562;47.620;18.786;2023-07-13T03:27:45;9.30;;;5.10;;
67757;SDS011;54562;47.620;18.786;2023-07-13T03:30:56;7.70;;;5.00;;
67757;SDS011;54562;47.620;18.786;2023-07-13T03:34:05;11.40;;;5.20;;
67757;SDS011;54562;47.620;18.786;2023-07-13T03:37:11;10.00;;;5.10;;
67757;SDS011;54562;47.620;18.786;2023-07-13T03:40:17;9.40;;;5.00;;
67757;SDS011;54562;47.620;18.786;2023-07-13T03:43:24;11.30;;;5.20;;
67757;SDS011;54562;47.620;18.786;2023-07-13T03:46:30;9.80;;;5.00;;
67757;SDS011;54562;47.620;18.786;2023-07-13T03:49:37;12.60;;;5.00;;
67757;SDS011;54562;47.620;18.786;2023-07-13T03:52:44;10.70;;;5.10;;
67757;SDS011;54562;47.620;18.786;2023-07-13T03:55:50;10.10;;;5.40;;
67757;SDS011;54562;47.620;18.786;2023-07-13T03:58:57;10.90;;;5.30;;
67757;SDS011;54562;47.620;18.786;2023-07-13T04:02:05;8.80;;;5.40;;
67757;SDS011;54562;47.620;18.786;2023-07-13T04:05:13;10.00;;;5.70;;
67757;SDS011;54562;47.620;18.786;2023-07-13T04:08:20;10.60;;;6.00;;
67757;SDS011;54562;47.620;18.786;2023-07-13T04:11:27;12.30;;;6.10;;
67757;SDS011;54562;47.620;18.786;2023-07-13T04:14:35;11.20;;;6.20;;
67757;SDS011;54562;47.620;18.786;2023-07-13T04:17:41;12.40;;;5.90;;
67757;SDS011;54562;47.620;18.786;2023-07-13T04:20:47;10.20;;;5.90;;
67757;SDS011;54562;47.620;18.786;2023-07-13T04:23:54;10.70;;;6.00;;
67757;SDS011;54562;47.620;18.786;2023-07-13T04:27:02;12.50;;;6.20;;
67757;SDS011;54562;47.620;18.786;2023-07-13T04:30:09;13.80;;;6.60;;
67757;SDS011;54562;47.620;18.786;2023-07-13T04:33:16;12.30;;;6.70;;
67757;SDS011;54562;47.620;18.786;2023-07-13T04:36:25;10.50;;;6.00;;
67757;SDS011;54562;47.620;18.786;2023-07-13T04:39:32;14.10;;;6.20;;
67757;SDS011;54562;47.620;18.786;2023-07-13T04:42:40;11.50;;;5.80;;
67757;SDS011;54562;47.620;18.786;2023-07-13T04:45:47;12.00;;;6.10;;
67757;SDS011;54562;47.620;18.786;2023-07-13T04:48:54;13.90;;;6.20;;
67757;SDS011;54562;47.620;18.786;2023-07-13T04:52:02;13.80;;;6.90;;
67757;SDS011;54562;47.620;18.786;2023-07-13T04:55:10;14.30;;;5.70;;
67757;SDS011;54562;47.620;18.786;2023-07-13T04:58:17;12.70;;;5.70;;
67757;SDS011;54562;47.620;18.786;2023-07-13T05:01:24;13.70;;;5.30;;
67757;SDS011;54562;47.620;18.786;2023-07-13T05:04:31;10.30;;;5.40;;
67757;SDS011;54562;47.620;18.786;2023-07-13T05:07:37;11.80;;;4.90;;
67757;SDS011;54562;47.620;18.786;2023-07-13T05:10:43;7.30;;;3.80;;
67757;SDS011;54562;47.620;18.786;2023-07-13T05:13:50;8.90;;;3.80;;
67757;SDS011;54562;47.620;18.786;2023-07-13T05:16:56;8.70;;;3.80;;
67757;SDS011;54562;47.620;18.786;2023-07-13T05:20:02;7.60;;;3.40;;
67757;SDS011;54562;47.620;18.786;2023-07-13T05:23:09;9.40;;;3.90;;
67757;SDS011;54562;47.620;18.786;2023-07-13T05:26:16;7.80;;;3.70;;
67757;SDS011;54562;47.620;18.786;2023-07-13T05:29:24;7.20;;;3.70;;
67757;SDS011;54562;47.620;18.786;2023-07-13T05:32:31;7.30;;;3.40;;
67757;SDS011;54562;47.620;18.786;2023-07-13T05:35:37;6.40;;;3.20;;
67757;SDS011;54562;47.620;18.786;2023-07-13T05:38:43;6.60;;;3.20;;
67757;SDS011;54562;47.620;18.786;2023-07-13T05:41:49;9.10;;;3.50;;
67757;SDS011;54562;47.620;18.786;2023-07-13T05:44:56;8.00;;;3.20;;
67757;SDS011;54562;47.620;18.786;2023-07-13T05:48:02;7.70;;;3.30;;
67757;SDS011;54562;47.620;18.786;2023-07-13T05:51:08;8.70;;;3.10;;
67757;SDS011;54562;47.620;18.786;2023-07-13T05:54:15;10.40;;;3.40;;
67757;SDS011;54562;47.620;18.786;2023-07-13T05:57:23;7.60;;;3.10;;
67757;SDS011;54562;47.620;18.786;2023-07-13T06:00:29;8.00;;;3.30;;
67757;SDS011;54562;47.620;18.786;2023-07-13T06:03:36;11.10;;;3.30;;
67757;SDS011;54562;47.620;18.786;2023-07-13T06:06:43;7.40;;;3.20;;
67757;SDS011;54562;47.620;18.786;2023-07-13T06:09:49;6.50;;;3.00;;
67757;SDS011;54562;47.620;18.786;2023-07-13T06:12:56;7.50;;;3.10;;
67757;SDS011;54562;47.620;18.786;2023-07-13T06:16:02;6.70;;;2.90;;
67757;SDS011;54562;47.620;18.786;2023-07-13T06:19:09;8.20;;;2.80;;
67757;SDS011;54562;47.620;18.786;2023-07-13T06:22:15;7.50;;;2.80;;
67757;SDS011;54562;47.620;18.786;2023-07-13T08:34:55;5.50;;;2.70;;
67757;SDS011;54562;47.620;18.786;2023-07-13T08:38:11;6.60;;;3.10;;
67757;SDS011;54562;47.620;18.786;2023-07-13T08:47:57;8.70;;;3.10;;
67757;SDS011;54562;47.620;18.786;2023-07-13T08:51:23;7.30;;;2.90;;
67757;SDS011;54562;47.620;18.786;2023-07-13T08:57:59;5.90;;;3.30;;
67757;SDS011;54562;47.620;18.786;2023-07-13T09:01:13;5.90;;;3.10;;
67757;SDS011;54562;47.620;18.786;2023-07-13T09:04:22;6.20;;;3.20;;
67757;SDS011;54562;47.620;18.786;2023-07-13T09:07:31;7.50;;;3.60;;
67757;SDS011;54562;47.620;18.786;2023-07-13T09:10:43;12.20;;;3.60;;
67757;SDS011;54562;47.620;18.786;2023-07-13T09:13:50;8.50;;;3.40;;
67757;SDS011;54562;47.620;18.786;2023-07-13T09:16:57;7.50;;;3.20;;
67757;SDS011;54562;47.620;18.786;2023-07-13T09:20:03;7.10;;;3.00;;
67757;SDS011;54562;47.620;18.786;2023-07-13T09:23:12;7.40;;;3.00;;
67757;SDS011;54562;47.620;18.786;2023-07-13T09:26:21;7.70;;;3.10;;
67757;SDS011;54562;47.620;18.786;2023-07-13T09:29:28;7.20;;;3.30;;
67757;SDS011;54562;47.620;18.786;2023-07-13T09:32:34;6.80;;;2.90;;
67757;SDS011;54562;47.620;18.786;2023-07-13T09:35:40;4.60;;;2.50;;
67757;SDS011;54562;47.620;18.786;2023-07-13T09:38:44;6.40;;;2.90;;
67757;SDS011;54562;47.620;18.786;2023-07-13T09:41:50;5.90;;;2.70;;
67757;SDS011;54562;47.620;18.786;2023-07-13T09:44:58;7.10;;;3.00;;
67757;SDS011;54562;47.620;18.786;2023-07-13T09:48:06;5.40;;;3.00;;
67757;SDS011;54562;47.620;18.786;2023-07-13T09:51:13;6.90;;;2.80;;
67757;SDS011;54562;47.620;18.786;2023-07-13T09:54:21;5.30;;;2.60;;
67757;SDS011;54562;47.620;18.786;2023-07-13T09:57:27;5.20;;;2.60;;
67757;SDS011;54562;47.620;18.786;2023-07-13T10:00:55;6.30;;;2.70;;
67757;SDS011;54562;47.620;18.786;2023-07-13T10:04:00;6.00;;;2.70;;
67757;SDS011;54562;47.620;18.786;2023-07-13T10:07:06;10.00;;;2.80;;
67757;SDS011;54562;47.620;18.786;2023-07-13T10:10:31;6.30;;;2.80;;
67757;SDS011;54562;47.620;18.786;2023-07-13T10:13:35;6.70;;;3.00;;
67757;SDS011;54562;47.620;18.786;2023-07-13T10:16:40;6.40;;;2.90;;
67757;SDS011;54562;47.620;18.786;2023-07-13T10:19:45;5.90;;;2.60;;
67757;SDS011;54562;47.620;18.786;2023-07-13T10:22:53;6.60;;;2.70;;
67757;SDS011;54562;47.620;18.786;2023-07-13T10:25:59;7.00;;;3.00;;
67757;SDS011;54562;47.620;18.786;2023-07-13T10:29:05;5.80;;;2.80;;
67757;SDS011;54562;47.620;18.786;2023-07-13T10:32:12;6.10;;;2.90;;
67757;SDS011;54562;47.620;18.786;2023-07-13T10:35:17;8.00;;;2.70;;
67757;SDS011;54562;47.620;18.786;2023-07-13T10:38:24;6.60;;;2.90;;
67757;SDS011;54562;47.620;18.786;2023-07-13T10:41:30;6.80;;;2.90;;
67757;SDS011;54562;47.620;18.786;2023-07-13T10:44:37;5.70;;;2.90;;
67757;SDS011;54562;47.620;18.786;2023-07-13T10:47:41;5.30;;;2.60;;
67757;SDS011;54562;47.620;18.786;2023-07-13T10:50:46;5.70;;;2.80;;
67757;SDS011;54562;47.620;18.786;2023-07-13T10:57:21;6.30;;;2.80;;
67757;SDS011;54562;47.620;18.786;2023-07-13T11:00:25;6.40;;;2.90;;
67757;SDS011;54562;47.620;18.786;2023-07-13T11:03:29;5.40;;;2.90;;
67757;SDS011;54562;47.620;18.786;2023-07-13T11:06:37;6.10;;;2.90;;
67757;SDS011;54562;47.620;18.786;2023-07-13T11:09:43;5.30;;;2.70;;
67757;SDS011;54562;47.620;18.786;2023-07-13T11:12:51;6.00;;;3.10;;
67757;SDS011;54562;47.620;18.786;2023-07-13T11:15:56;5.40;;;2.90;;
67757;SDS011;54562;47.620;18.786;2023-07-13T11:22:42;7.10;;;3.10;;
67757;SDS011;54562;47.620;18.786;2023-07-13T11:25:47;5.60;;;3.00;;
67757;SDS011;54562;47.620;18.786;2023-07-13T11:28:51;6.10;;;2.80;;
67757;SDS011;54562;47.620;18.786;2023-07-13T11:31:56;6.20;;;3.00;;
67757;SDS011;54562;47.620;18.786;2023-07-13T11:35:01;7.00;;;3.30;;
67757;SDS011;54562;47.620;18.786;2023-07-13T11:38:09;6.30;;;3.00;;
67757;SDS011;54562;47.620;18.786;2023-07-13T11:41:18;6.10;;;3.10;;
67757;SDS011;54562;47.620;18.786;2023-07-13T11:44:24;7.20;;;3.10;;
67757;SDS011;54562;47.620;18.786;2023-07-13T11:47:44;5.90;;;3.00;;
67757;SDS011;54562;47.620;18.786;2023-07-13T11:51:10;5.70;;;3.20;;
67757;SDS011;54562;47.620;18.786;2023-07-13T11:54:24;6.20;;;3.40;;
67757;SDS011;54562;47.620;18.786;2023-07-13T12:01:21;5.70;;;3.10;;
67757;SDS011;54562;47.620;18.786;2023-07-13T12:04:28;5.80;;;3.00;;
67757;SDS011;54562;47.620;18.786;2023-07-13T12:07:35;6.90;;;3.20;;
67757;SDS011;54562;47.620;18.786;2023-07-13T12:10:40;5.60;;;3.00;;
67757;SDS011;54562;47.620;18.786;2023-07-13T12:13:46;7.10;;;2.90;;
67757;SDS011;54562;47.620;18.786;2023-07-13T12:16:51;5.70;;;2.90;;
67757;SDS011;54562;47.620;18.786;2023-07-13T12:19:55;5.40;;;2.70;;
67757;SDS011;54562;47.620;18.786;2023-07-13T13:37:51;5.70;;;2.70;;
67757;SDS011;54562;47.620;18.786;2023-07-13T13:40:55;4.80;;;2.60;;
67757;SDS011;54562;47.620;18.786;2023-07-13T13:43:58;5.30;;;2.70;;
67757;SDS011;54562;47.620;18.786;2023-07-13T13:47:03;6.10;;;2.70;;
67757;SDS011;54562;47.620;18.786;2023-07-13T13:50:11;5.80;;;2.70;;
67757;SDS011;54562;47.620;18.786;2023-07-13T13:53:17;5.30;;;2.70;;
67757;SDS011;54562;47.620;18.786;2023-07-13T13:56:20;4.70;;;2.70;;
67757;SDS011;54562;47.620;18.786;2023-07-13T13:59:24;6.40;;;2.60;;
67757;SDS011;54562;47.620;18.786;2023-07-13T14:02:28;4.90;;;2.50;;
67757;SDS011;54562;47.620;18.786;2023-07-13T14:05:33;5.80;;;2.60;;
67757;SDS011;54562;47.620;18.786;2023-07-13T14:08:38;6.10;;;2.60;;
67757;SDS011;54562;47.620;18.786;2023-07-13T14:11:42;5.10;;;2.40;;
67757;SDS011;54562;47.620;18.786;2023-07-13T14:14:47;6.30;;;2.60;;
67757;SDS011;54562;47.620;18.786;2023-07-13T14:17:51;5.80;;;2.60;;
67757;SDS011;54562;47.620;18.786;2023-07-13T14:20:55;6.30;;;3.00;;
67757;SDS011;54562;47.620;18.786;2023-07-13T14:23:59;5.80;;;2.70;;
67757;SDS011;54562;47.620;18.786;2023-07-13T14:27:04;6.10;;;2.70;;
67757;SDS011;54562;47.620;18.786;2023-07-13T14:30:13;5.30;;;2.60;;
67757;SDS011;54562;47.620;18.786;2023-07-13T14:33:17;6.60;;;2.90;;
67757;SDS011;54562;47.620;18.786;2023-07-13T14:36:26;6.90;;;2.80;;
67757;SDS011;54562;47.620;18.786;2023-07-13T14:39:32;6.60;;;2.70;;
67757;SDS011;54562;47.620;18.786;2023-07-13T14:42:36;6.20;;;2.50;;
67757;SDS011;54562;47.620;18.786;2023-07-13T14:45:41;6.10;;;3.30;;
67757;SDS011;54562;47.620;18.786;2023-07-13T14:48:45;7.10;;;3.00;;
67757;SDS011;54562;47.620;18.786;2023-07-13T14:51:49;6.00;;;2.70;;
67757;SDS011;54562;47.620;18.786;2023-07-13T14:54:53;6.10;;;2.90;;
67757;SDS011;54562;47.620;18.786;2023-07-13T14:57:57;7.30;;;3.00;;
67757;SDS011;54562;47.620;18.786;2023-07-13T15:01:01;5.60;;;2.60;;
67757;SDS011;54562;47.620;18.786;2023-07-13T15:04:06;5.80;;;2.80;;
67757;SDS011;54562;47.620;18.786;2023-07-13T15:07:10;5.20;;;2.70;;
67757;SDS011;54562;47.620;18.786;2023-07-13T15:10:16;7.30;;;2.80;;
67757;SDS011;54562;47.620;18.786;2023-07-13T15:13:21;6.10;;;2.80;;
67757;SDS011;54562;47.620;18.786;2023-07-13T15:16:25;6.50;;;2.70;;
67757;SDS011;54562;47.620;18.786;2023-07-13T15:19:30;5.50;;;2.80;;
67757;SDS011;54562;47.620;18.786;2023-07-13T15:22:34;5.70;;;2.80;;
67757;SDS011;54562;47.620;18.786;2023-07-13T15:25:38;6.00;;;2.80;;
67757;SDS011;54562;47.620;18.786;2023-07-13T15:28:44;6.40;;;2.70;;
67757;SDS011;54562;47.620;18.786;2023-07-13T15:31:48;6.80;;;3.10;;
67757;SDS011;54562;47.620;18.786;2023-07-13T15:34:53;6.00;;;2.90;;
67757;SDS011;54562;47.620;18.786;2023-07-13T15:37:56;6.10;;;2.70;;
67757;SDS011;54562;47.620;18.786;2023-07-13T15:41:00;6.00;;;2.60;;
67757;SDS011;54562;47.620;18.786;2023-07-13T15:44:14;7.30;;;2.80;;
67757;SDS011;54562;47.620;18.786;2023-07-13T15:47:26;6.50;;;2.70;;
67757;SDS011;54562;47.620;18.786;2023-07-13T15:50:30;7.80;;;3.00;;
67757;SDS011;54562;47.620;18.786;2023-07-13T15:53:44;8.20;;;2.90;;
67757;SDS011;54562;47.620;18.786;2023-07-13T15:56:52;7.10;;;2.90;;
67757;SDS011;54562;47.620;18.786;2023-07-13T16:00:15;5.30;;;2.60;;
67757;SDS011;54562;47.620;18.786;2023-07-13T16:03:22;7.20;;;2.80;;
67757;SDS011;54562;47.620;18.786;2023-07-13T16:06:28;6.90;;;2.80;;
67757;SDS011;54562;47.620;18.786;2023-07-13T16:09:32;7.30;;;2.80;;
67757;SDS011;54562;47.620;18.786;2023-07-13T16:12:40;6.70;;;3.10;;
67757;SDS011;54562;47.620;18.786;2023-07-13T16:15:44;6.90;;;3.10;;
67757;SDS011;54562;47.620;18.786;2023-07-13T16:18:50;8.20;;;3.00;;
67757;SDS011;54562;47.620;18.786;2023-07-13T16:21:56;6.10;;;2.80;;
67757;SDS011;54562;47.620;18.786;2023-07-13T16:25:02;7.20;;;3.30;;
67757;SDS011;54562;47.620;18.786;2023-07-13T16:28:09;6.20;;;3.00;;
67757;SDS011;54562;47.620;18.786;2023-07-13T16:31:13;6.40;;;3.00;;
67757;SDS011;54562;47.620;18.786;2023-07-13T16:34:17;5.80;;;3.10;;
67757;SDS011;54562;47.620;18.786;2023-07-13T16:37:26;5.90;;;2.90;;
67757;SDS011;54562;47.620;18.786;2023-07-13T16:40:32;6.40;;;2.90;;
67757;SDS011;54562;47.620;18.786;2023-07-13T16:43:37;6.80;;;2.80;;
67757;SDS011;54562;47.620;18.786;2023-07-13T16:46:42;5.50;;;2.60;;
67757;SDS011;54562;47.620;18.786;2023-07-13T16:49:48;5.50;;;2.70;;
67757;SDS011;54562;47.620;18.786;2023-07-13T16:52:52;6.10;;;3.00;;
67757;SDS011;54562;47.620;18.786;2023-07-13T16:55:57;5.80;;;3.10;;
67757;SDS011;54562;47.620;18.786;2023-07-13T16:59:10;6.80;;;2.90;;
67757;SDS011;54562;47.620;18.786;2023-07-13T17:02:28;6.10;;;2.80;;
67757;SDS011;54562;47.620;18.786;2023-07-13T17:05:36;7.80;;;3.10;;
67757;SDS011;54562;47.620;18.786;2023-07-13T17:08:42;8.00;;;3.00;;
67757;SDS011;54562;47.620;18.786;2023-07-13T17:11:47;6.00;;;3.00;;
67757;SDS011;54562;47.620;18.786;2023-07-13T17:14:52;5.90;;;2.70;;
67757;SDS011;54562;47.620;18.786;2023-07-13T17:17:56;5.80;;;2.90;;
67757;SDS011;54562;47.620;18.786;2023-07-13T17:21:15;8.40;;;3.80;;
67757;SDS011;54562;47.620;18.786;2023-07-13T17:24:19;6.00;;;3.00;;
67757;SDS011;54562;47.620;18.786;2023-07-13T17:27:29;7.40;;;2.90;;
67757;SDS011;54562;47.620;18.786;2023-07-13T17:30:34;6.60;;;2.50;;
67757;SDS011;54562;47.620;18.786;2023-07-13T17:33:39;9.80;;;3.20;;
67757;SDS011;54562;47.620;18.786;2023-07-13T17:36:44;6.50;;;2.70;;
67757;SDS011;54562;47.620;18.786;2023-07-13T17:39:48;5.70;;;2.80;;
67757;SDS011;54562;47.620;18.786;2023-07-13T17:42:52;6.00;;;3.00;;
67757;SDS011;54562;47.620;18.786;2023-07-13T17:45:58;5.60;;;2.80;;
67757;SDS011;54562;47.620;18.786;2023-07-13T17:49:02;6.30;;;2.90;;
67757;SDS011;54562;47.620;18.786;2023-07-13T17:52:08;5.30;;;2.80;;
67757;SDS011;54562;47.620;18.786;2023-07-13T17:55:15;6.10;;;2.60;;
67757;SDS011;54562;47.620;18.786;2023-07-13T17:58:26;6.90;;;2.70;;
67757;SDS011;54562;47.620;18.786;2023-07-13T18:04:43;7.00;;;3.10;;
67757;SDS011;54562;47.620;18.786;2023-07-13T18:07:49;5.40;;;2.80;;
67757;SDS011;54562;47.620;18.786;2023-07-13T18:10:53;7.20;;;2.90;;
67757;SDS011;54562;47.620;18.786;2023-07-13T18:13:58;6.10;;;2.90;;
67757;SDS011;54562;47.620;18.786;2023-07-13T18:17:03;7.00;;;3.30;;
67757;SDS011;54562;47.620;18.786;2023-07-13T18:23:20;7.20;;;2.90;;
67757;SDS011;54562;47.620;18.786;2023-07-13T18:26:25;9.40;;;2.90;;
67757;SDS011;54562;47.620;18.786;2023-07-13T18:29:29;7.20;;;3.40;;
67757;SDS011;54562;47.620;18.786;2023-07-13T18:32:33;7.10;;;3.00;;
67757;SDS011;54562;47.620;18.786;2023-07-13T18:35:38;5.80;;;3.10;;
67757;SDS011;54562;47.620;18.786;2023-07-13T18:38:43;6.60;;;3.30;;
67757;SDS011;54562;47.620;18.786;2023-07-13T18:41:47;6.90;;;3.10;;
67757;SDS011;54562;47.620;18.786;2023-07-13T18:44:51;5.90;;;2.90;;
67757;SDS011;54562;47.620;18.786;2023-07-13T18:51:32;6.40;;;3.00;;
67757;SDS011;54562;47.620;18.786;2023-07-13T18:54:37;7.90;;;3.00;;
67757;SDS011;54562;47.620;18.786;2023-07-13T18:57:43;5.70;;;3.00;;
67757;SDS011;54562;47.620;18.786;2023-07-13T19:00:48;6.10;;;2.90;;
67757;SDS011;54562;47.620;18.786;2023-07-13T19:03:55;5.60;;;2.80;;
67757;SDS011;54562;47.620;18.786;2023-07-13T19:07:12;6.60;;;3.00;;
67757;SDS011;54562;47.620;18.786;2023-07-13T19:10:23;5.60;;;2.70;;
67757;SDS011;54562;47.620;18.786;2023-07-13T19:13:30;6.70;;;2.70;;
67757;SDS011;54562;47.620;18.786;2023-07-13T19:16:37;5.60;;;2.90;;
67757;SDS011;54562;47.620;18.786;2023-07-13T19:19:42;5.20;;;2.80;;
67757;SDS011;54562;47.620;18.786;2023-07-13T19:22:53;5.50;;;2.60;;
67757;SDS011;54562;47.620;18.786;2023-07-13T19:26:14;6.10;;;3.00;;
67757;SDS011;54562;47.620;18.786;2023-07-13T19:29:22;6.40;;;2.80;;
67757;SDS011;54562;47.620;18.786;2023-07-13T19:32:28;6.50;;;2.90;;
67757;SDS011;54562;47.620;18.786;2023-07-13T19:38:59;5.70;;;2.90;;
67757;SDS011;54562;47.620;18.786;2023-07-13T19:42:05;5.80;;;3.10;;
67757;SDS011;54562;47.620;18.786;2023-07-13T19:45:15;5.80;;;3.00;;
67757;SDS011;54562;47.620;18.786;2023-07-13T19:48:21;6.00;;;2.70;;
67757;SDS011;54562;47.620;18.786;2023-07-13T19:51:25;7.00;;;2.90;;
67757;SDS011;54562;47.620;18.786;2023-07-13T19:54:29;6.00;;;3.10;;
67757;SDS011;54562;47.620;18.786;2023-07-13T19:57:34;6.70;;;3.20;;
67757;SDS011;54562;47.620;18.786;2023-07-13T20:00:38;7.70;;;3.30;;
67757;SDS011;54562;47.620;18.786;2023-07-13T20:03:43;6.70;;;3.00;;
67757;SDS011;54562;47.620;18.786;2023-07-13T20:06:47;5.40;;;2.70;;
67757;SDS011;54562;47.620;18.786;2023-07-13T20:09:51;5.30;;;2.70;;
67757;SDS011;54562;47.620;18.786;2023-07-13T20:12:58;5.30;;;2.80;;
67757;SDS011;54562;47.620;18.786;2023-07-13T20:16:02;6.20;;;3.10;;
67757;SDS011;54562;47.620;18.786;2023-07-13T20:19:09;5.90;;;2.90;;
67757;SDS011;54562;47.620;18.786;2023-07-13T20:22:15;6.20;;;2.70;;
67757;SDS011;54562;47.620;18.786;2023-07-13T20:25:21;6.00;;;3.00;;
67757;SDS011;54562;47.620;18.786;2023-07-13T20:28:26;5.40;;;3.00;;
67757;SDS011;54562;47.620;18.786;2023-07-13T20:31:31;6.50;;;3.10;;
67757;SDS011;54562;47.620;18.786;2023-07-13T20:34:37;5.90;;;2.90;;
67757;SDS011;54562;47.620;18.786;2023-07-13T20:37:41;5.40;;;2.90;;
67757;SDS011;54562;47.620;18.786;2023-07-13T20:40:48;7.40;;;2.80;;
67757;SDS011;54562;47.620;18.786;2023-07-13T20:43:54;5.50;;;3.00;;
67757;SDS011;54562;47.620;18.786;2023-07-13T20:46:58;6.50;;;3.10;;
67757;SDS011;54562;47.620;18.786;2023-07-13T20:50:08;6.50;;;3.20;;
67757;SDS011;54562;47.620;18.786;2023-07-13T20:53:20;5.50;;;3.00;;
67757;SDS011;54562;47.620;18.786;2023-07-13T20:56:26;6.30;;;3.10;;
67757;SDS011;54562;47.620;18.786;2023-07-13T20:59:31;5.60;;;3.00;;
67757;SDS011;54562;47.620;18.786;2023-07-13T21:02:35;7.40;;;2.90;;
67757;SDS011;54562;47.620;18.786;2023-07-13T21:05:40;6.00;;;3.10;;
67757;SDS011;54562;47.620;18.786;2023-07-13T21:08:44;7.10;;;3.40;;
67757;SDS011;54562;47.620;18.786;2023-07-13T21:11:49;6.10;;;3.10;;
67757;SDS011;54562;47.620;18.786;2023-07-13T21:14:53;5.90;;;3.20;;
67757;SDS011;54562;47.620;18.786;2023-07-13T21:17:58;6.20;;;3.20;;
67757;SDS011;54562;47.620;18.786;2023-07-13T21:21:03;6.90;;;3.20;;
67757;SDS011;54562;47.620;18.786;2023-07-13T21:24:08;5.90;;;3.30;;
67757;SDS011;54562;47.620;18.786;2023-07-13T21:27:13;7.40;;;3.30;;
67757;SDS011;54562;47.620;18.786;2023-07-13T21:30:17;6.20;;;3.30;;
67757;SDS011;54562;47.620;18.786;2023-07-13T21:33:22;7.10;;;3.50;;
67757;SDS011;54562;47.620;18.786;2023-07-13T21:36:27;6.80;;;3.40;;
67757;SDS011;54562;47.620;18.786;2023-07-13T21:39:32;6.10;;;3.20;;
67757;SDS011;54562;47.620;18.786;2023-07-13T21:42:36;9.00;;;3.40;;
67757;SDS011;54562;47.620;18.786;2023-07-13T21:45:40;7.70;;;3.40;;
67757;SDS011;54562;47.620;18.786;2023-07-13T21:48:44;5.50;;;3.00;;
67757;SDS011;54562;47.620;18.786;2023-07-13T21:51:49;7.70;;;3.50;;
67757;SDS011;54562;47.620;18.786;2023-07-13T21:54:53;6.00;;;3.60;;
67757;SDS011;54562;47.620;18.786;2023-07-13T21:57:57;8.20;;;3.40;;
67757;SDS011;54562;47.620;18.786;2023-07-13T22:01:01;5.70;;;3.50;;
67757;SDS011;54562;47.620;18.786;2023-07-13T22:04:08;7.00;;;3.70;;
67757;SDS011;54562;47.620;18.786;2023-07-13T22:07:14;8.20;;;3.40;;
67757;SDS011;54562;47.620;18.786;2023-07-13T22:10:19;6.60;;;3.10;;
67757;SDS011;54562;47.620;18.786;2023-07-13T22:13:24;6.20;;;3.50;;
67757;SDS011;54562;47.620;18.786;2023-07-13T22:16:29;7.50;;;3.70;;
67757;SDS011;54562;47.620;18.786;2023-07-13T22:19:33;6.00;;;3.60;;
67757;SDS011;54562;47.620;18.786;2023-07-13T22:22:37;6.60;;;3.40;;
67757;SDS011;54562;47.620;18.786;2023-07-13T22:25:41;6.00;;;3.30;;